sensor_id;sensor_type;location;lat;lon;timestamp;P1;durP1;ratioP1;P2;durP2;ratioP2
63342;SDS011;49465;57.664;39.686;2023-02-02T00:01:29;24.95;;;15.50;;
63342;SDS011;49465;57.664;39.686;2023-02-02T00:03:55;24.70;;;15.98;;
63342;SDS011;49465;57.664;39.686;2023-02-02T00:06:22;25.00;;;15.45;;
63342;SDS011;49465;57.664;39.686;2023-02-02T00:08:51;24.00;;;15.13;;
63342;SDS011;49465;57.664;39.686;2023-02-02T00:11:19;22.83;;;15.20;;
63342;SDS011;49465;57.664;39.686;2023-02-02T00:13:45;24.63;;;15.52;;
63342;SDS011;49465;57.664;39.686;2023-02-02T00:18:57;25.77;;;16.27;;
63342;SDS011;49465;57.664;39.686;2023-02-02T00:21:29;26.55;;;15.73;;
63342;SDS011;49465;57.664;39.686;2023-02-02T00:23:55;25.85;;;16.75;;
63342;SDS011;49465;57.664;39.686;2023-02-02T00:26:22;28.20;;;17.17;;
63342;SDS011;49465;57.664;39.686;2023-02-02T00:28:51;26.80;;;17.63;;
63342;SDS011;49465;57.664;39.686;2023-02-02T00:31:17;27.33;;;17.15;;
63342;SDS011;49465;57.664;39.686;2023-02-02T00:33:44;25.83;;;17.75;;
63342;SDS011;49465;57.664;39.686;2023-02-02T00:36:11;28.95;;;17.70;;
63342;SDS011;49465;57.664;39.686;2023-02-02T00:38:38;28.42;;;18.13;;
63342;SDS011;49465;57.664;39.686;2023-02-02T00:41:05;27.90;;;18.08;;
63342;SDS011;49465;57.664;39.686;2023-02-02T00:43:31;28.95;;;18.20;;
63342;SDS011;49465;57.664;39.686;2023-02-02T00:45:58;29.70;;;19.00;;
63342;SDS011;49465;57.664;39.686;2023-02-02T00:48:27;29.58;;;18.65;;
63342;SDS011;49465;57.664;39.686;2023-02-02T00:50:53;31.15;;;18.50;;
63342;SDS011;49465;57.664;39.686;2023-02-02T00:53:20;29.58;;;18.42;;
63342;SDS011;49465;57.664;39.686;2023-02-02T00:55:49;28.83;;;18.15;;
63342;SDS011;49465;57.664;39.686;2023-02-02T00:58:15;30.20;;;19.10;;
63342;SDS011;49465;57.664;39.686;2023-02-02T01:00:42;30.85;;;19.80;;
63342;SDS011;49465;57.664;39.686;2023-02-02T01:03:11;29.42;;;18.83;;
63342;SDS011;49465;57.664;39.686;2023-02-02T01:05:37;32.83;;;20.00;;
63342;SDS011;49465;57.664;39.686;2023-02-02T01:08:04;31.45;;;19.75;;
63342;SDS011;49465;57.664;39.686;2023-02-02T01:10:34;30.98;;;18.35;;
63342;SDS011;49465;57.664;39.686;2023-02-02T01:13:00;30.63;;;19.35;;
63342;SDS011;49465;57.664;39.686;2023-02-02T01:15:27;30.52;;;19.40;;
63342;SDS011;49465;57.664;39.686;2023-02-02T01:17:54;27.60;;;18.40;;
63342;SDS011;49465;57.664;39.686;2023-02-02T01:20:21;32.92;;;19.60;;
63342;SDS011;49465;57.664;39.686;2023-02-02T01:22:48;28.27;;;18.00;;
63342;SDS011;49465;57.664;39.686;2023-02-02T01:25:14;29.00;;;18.25;;
63342;SDS011;49465;57.664;39.686;2023-02-02T01:27:41;28.33;;;18.10;;
63342;SDS011;49465;57.664;39.686;2023-02-02T01:30:07;30.73;;;18.10;;
63342;SDS011;49465;57.664;39.686;2023-02-02T01:32:34;27.85;;;18.70;;
63342;SDS011;49465;57.664;39.686;2023-02-02T01:35:00;30.88;;;18.83;;
63342;SDS011;49465;57.664;39.686;2023-02-02T01:37:27;32.30;;;19.63;;
63342;SDS011;49465;57.664;39.686;2023-02-02T01:39:53;31.27;;;19.08;;
63342;SDS011;49465;57.664;39.686;2023-02-02T01:42:20;29.80;;;18.73;;
63342;SDS011;49465;57.664;39.686;2023-02-02T01:47:29;28.42;;;17.60;;
63342;SDS011;49465;57.664;39.686;2023-02-02T01:50:03;28.33;;;18.40;;
63342;SDS011;49465;57.664;39.686;2023-02-02T01:52:30;29.42;;;17.92;;
63342;SDS011;49465;57.664;39.686;2023-02-02T01:54:59;28.27;;;17.30;;
63342;SDS011;49465;57.664;39.686;2023-02-02T01:57:36;28.48;;;17.13;;
63342;SDS011;49465;57.664;39.686;2023-02-02T02:00:05;28.35;;;17.55;;
63342;SDS011;49465;57.664;39.686;2023-02-02T02:02:35;28.83;;;17.88;;
63342;SDS011;49465;57.664;39.686;2023-02-02T02:05:06;31.08;;;18.75;;
63342;SDS011;49465;57.664;39.686;2023-02-02T02:07:33;31.85;;;18.58;;
63342;SDS011;49465;57.664;39.686;2023-02-02T02:09:59;30.48;;;17.88;;
63342;SDS011;49465;57.664;39.686;2023-02-02T02:12:26;30.23;;;17.92;;
63342;SDS011;49465;57.664;39.686;2023-02-02T02:14:52;30.23;;;18.30;;
63342;SDS011;49465;57.664;39.686;2023-02-02T02:32:46;30.48;;;18.10;;
63342;SDS011;49465;57.664;39.686;2023-02-02T02:43:02;33.45;;;20.23;;
63342;SDS011;49465;57.664;39.686;2023-02-02T02:45:35;33.58;;;19.85;;
63342;SDS011;49465;57.664;39.686;2023-02-02T02:48:03;34.03;;;19.88;;
63342;SDS011;49465;57.664;39.686;2023-02-02T02:50:30;34.55;;;19.63;;
63342;SDS011;49465;57.664;39.686;2023-02-02T02:53:07;32.88;;;19.63;;
63342;SDS011;49465;57.664;39.686;2023-02-02T02:55:48;32.70;;;19.30;;
63342;SDS011;49465;57.664;39.686;2023-02-02T02:58:48;32.92;;;19.73;;
63342;SDS011;49465;57.664;39.686;2023-02-02T03:01:38;34.03;;;19.63;;
63342;SDS011;49465;57.664;39.686;2023-02-02T03:04:46;34.15;;;20.35;;
63342;SDS011;49465;57.664;39.686;2023-02-02T03:07:27;31.80;;;19.33;;
63342;SDS011;49465;57.664;39.686;2023-02-02T03:10:10;30.85;;;19.25;;
63342;SDS011;49465;57.664;39.686;2023-02-02T03:12:44;35.22;;;19.98;;
63342;SDS011;49465;57.664;39.686;2023-02-02T03:15:14;34.35;;;19.55;;
63342;SDS011;49465;57.664;39.686;2023-02-02T03:17:42;29.38;;;18.58;;
63342;SDS011;49465;57.664;39.686;2023-02-02T03:20:12;32.50;;;18.95;;
63342;SDS011;49465;57.664;39.686;2023-02-02T03:22:38;32.78;;;19.20;;
63342;SDS011;49465;57.664;39.686;2023-02-02T03:25:05;31.73;;;19.08;;
63342;SDS011;49465;57.664;39.686;2023-02-02T03:27:35;31.80;;;19.35;;
63342;SDS011;49465;57.664;39.686;2023-02-02T03:30:04;31.08;;;18.83;;
63342;SDS011;49465;57.664;39.686;2023-02-02T03:32:32;31.45;;;18.23;;
63342;SDS011;49465;57.664;39.686;2023-02-02T03:34:59;31.23;;;18.63;;
63342;SDS011;49465;57.664;39.686;2023-02-02T03:37:25;31.17;;;19.08;;
63342;SDS011;49465;57.664;39.686;2023-02-02T03:39:52;31.55;;;19.02;;
63342;SDS011;49465;57.664;39.686;2023-02-02T03:42:18;31.17;;;18.58;;
63342;SDS011;49465;57.664;39.686;2023-02-02T03:44:47;30.52;;;18.77;;
63342;SDS011;49465;57.664;39.686;2023-02-02T03:47:13;31.90;;;18.50;;
63342;SDS011;49465;57.664;39.686;2023-02-02T03:49:39;31.08;;;18.23;;
63342;SDS011;49465;57.664;39.686;2023-02-02T03:52:06;30.42;;;18.40;;
63342;SDS011;49465;57.664;39.686;2023-02-02T03:54:32;32.47;;;18.88;;
63342;SDS011;49465;57.664;39.686;2023-02-02T03:56:59;31.30;;;18.60;;
63342;SDS011;49465;57.664;39.686;2023-02-02T03:59:25;30.85;;;18.15;;
63342;SDS011;49465;57.664;39.686;2023-02-02T04:01:51;31.85;;;18.85;;
63342;SDS011;49465;57.664;39.686;2023-02-02T04:04:18;29.35;;;17.23;;
63342;SDS011;49465;57.664;39.686;2023-02-02T04:06:44;29.90;;;18.02;;
63342;SDS011;49465;57.664;39.686;2023-02-02T04:09:11;31.27;;;17.73;;
63342;SDS011;49465;57.664;39.686;2023-02-02T04:11:37;27.15;;;17.75;;
63342;SDS011;49465;57.664;39.686;2023-02-02T04:14:03;28.90;;;17.75;;
63342;SDS011;49465;57.664;39.686;2023-02-02T04:16:31;30.95;;;18.35;;
63342;SDS011;49465;57.664;39.686;2023-02-02T04:19:01;30.67;;;18.95;;
63342;SDS011;49465;57.664;39.686;2023-02-02T04:21:28;29.60;;;17.98;;
63342;SDS011;49465;57.664;39.686;2023-02-02T04:23:55;27.77;;;17.08;;
63342;SDS011;49465;57.664;39.686;2023-02-02T04:26:21;31.10;;;18.13;;
63342;SDS011;49465;57.664;39.686;2023-02-02T04:28:51;29.13;;;17.35;;
63342;SDS011;49465;57.664;39.686;2023-02-02T04:31:17;28.63;;;17.23;;
63342;SDS011;49465;57.664;39.686;2023-02-02T04:33:44;29.88;;;17.58;;
63342;SDS011;49465;57.664;39.686;2023-02-02T04:36:10;28.85;;;16.95;;
63342;SDS011;49465;57.664;39.686;2023-02-02T04:38:37;31.98;;;18.00;;
63342;SDS011;49465;57.664;39.686;2023-02-02T04:41:07;31.70;;;17.75;;
63342;SDS011;49465;57.664;39.686;2023-02-02T04:43:36;30.27;;;18.48;;
63342;SDS011;49465;57.664;39.686;2023-02-02T04:46:03;28.17;;;17.70;;
63342;SDS011;49465;57.664;39.686;2023-02-02T04:48:29;30.15;;;17.98;;
63342;SDS011;49465;57.664;39.686;2023-02-02T04:50:59;34.75;;;18.98;;
63342;SDS011;49465;57.664;39.686;2023-02-02T04:53:30;30.55;;;18.27;;
63342;SDS011;49465;57.664;39.686;2023-02-02T04:55:57;31.67;;;18.38;;
63342;SDS011;49465;57.664;39.686;2023-02-02T04:58:29;29.88;;;17.15;;
63342;SDS011;49465;57.664;39.686;2023-02-02T05:00:55;30.05;;;18.13;;
63342;SDS011;49465;57.664;39.686;2023-02-02T05:03:21;31.65;;;18.33;;
63342;SDS011;49465;57.664;39.686;2023-02-02T05:05:48;30.55;;;17.95;;
63342;SDS011;49465;57.664;39.686;2023-02-02T05:08:14;29.10;;;17.60;;
63342;SDS011;49465;57.664;39.686;2023-02-02T05:10:40;30.92;;;18.65;;
63342;SDS011;49465;57.664;39.686;2023-02-02T05:13:07;31.33;;;17.95;;
63342;SDS011;49465;57.664;39.686;2023-02-02T05:15:34;28.75;;;17.70;;
63342;SDS011;49465;57.664;39.686;2023-02-02T05:18:00;33.08;;;18.50;;
63342;SDS011;49465;57.664;39.686;2023-02-02T05:20:27;30.00;;;17.85;;
63342;SDS011;49465;57.664;39.686;2023-02-02T05:22:55;32.42;;;18.33;;
63342;SDS011;49465;57.664;39.686;2023-02-02T05:25:22;32.30;;;18.58;;
63342;SDS011;49465;57.664;39.686;2023-02-02T05:27:48;29.52;;;17.40;;
63342;SDS011;49465;57.664;39.686;2023-02-02T05:30:14;31.65;;;18.42;;
63342;SDS011;49465;57.664;39.686;2023-02-02T05:32:41;32.60;;;18.80;;
63342;SDS011;49465;57.664;39.686;2023-02-02T05:35:08;32.78;;;18.92;;
63342;SDS011;49465;57.664;39.686;2023-02-02T05:37:35;34.38;;;20.65;;
63342;SDS011;49465;57.664;39.686;2023-02-02T05:40:01;36.75;;;20.85;;
63342;SDS011;49465;57.664;39.686;2023-02-02T05:42:28;34.33;;;20.20;;
63342;SDS011;49465;57.664;39.686;2023-02-02T05:44:54;34.90;;;20.90;;
63342;SDS011;49465;57.664;39.686;2023-02-02T05:47:20;31.67;;;19.48;;
63342;SDS011;49465;57.664;39.686;2023-02-02T05:49:48;31.60;;;18.67;;
63342;SDS011;49465;57.664;39.686;2023-02-02T05:52:15;30.67;;;18.95;;
63342;SDS011;49465;57.664;39.686;2023-02-02T05:54:46;31.83;;;18.85;;
63342;SDS011;49465;57.664;39.686;2023-02-02T05:57:12;28.73;;;18.60;;
63342;SDS011;49465;57.664;39.686;2023-02-02T05:59:39;33.35;;;19.77;;
63342;SDS011;49465;57.664;39.686;2023-02-02T06:02:05;32.42;;;19.23;;
63342;SDS011;49465;57.664;39.686;2023-02-02T06:04:32;33.83;;;19.45;;
63342;SDS011;49465;57.664;39.686;2023-02-02T06:06:58;31.70;;;19.90;;
63342;SDS011;49465;57.664;39.686;2023-02-02T06:09:24;31.95;;;19.48;;
63342;SDS011;49465;57.664;39.686;2023-02-02T06:11:51;34.83;;;19.75;;
63342;SDS011;49465;57.664;39.686;2023-02-02T06:14:17;32.53;;;19.63;;
63342;SDS011;49465;57.664;39.686;2023-02-02T06:16:43;35.60;;;20.27;;
63342;SDS011;49465;57.664;39.686;2023-02-02T06:19:10;32.40;;;19.92;;
63342;SDS011;49465;57.664;39.686;2023-02-02T06:21:36;32.60;;;19.15;;
63342;SDS011;49465;57.664;39.686;2023-02-02T06:24:02;31.90;;;19.02;;
63342;SDS011;49465;57.664;39.686;2023-02-02T06:26:29;31.23;;;19.25;;
63342;SDS011;49465;57.664;39.686;2023-02-02T06:28:55;33.67;;;19.08;;
63342;SDS011;49465;57.664;39.686;2023-02-02T06:31:22;32.63;;;19.90;;
63342;SDS011;49465;57.664;39.686;2023-02-02T06:33:55;33.08;;;20.30;;
63342;SDS011;49465;57.664;39.686;2023-02-02T06:36:23;35.13;;;20.77;;
63342;SDS011;49465;57.664;39.686;2023-02-02T06:38:51;37.63;;;21.45;;
63342;SDS011;49465;57.664;39.686;2023-02-02T06:41:19;34.83;;;20.58;;
63342;SDS011;49465;57.664;39.686;2023-02-02T06:43:46;29.10;;;18.90;;
63342;SDS011;49465;57.664;39.686;2023-02-02T06:46:13;34.13;;;19.92;;
63342;SDS011;49465;57.664;39.686;2023-02-02T06:48:40;35.75;;;20.63;;
63342;SDS011;49465;57.664;39.686;2023-02-02T06:51:07;32.70;;;19.88;;
63342;SDS011;49465;57.664;39.686;2023-02-02T06:53:33;34.92;;;20.55;;
63342;SDS011;49465;57.664;39.686;2023-02-02T06:56:04;36.20;;;20.50;;
63342;SDS011;49465;57.664;39.686;2023-02-02T06:58:33;33.97;;;20.25;;
63342;SDS011;49465;57.664;39.686;2023-02-02T07:01:00;35.97;;;20.52;;
63342;SDS011;49465;57.664;39.686;2023-02-02T07:03:28;35.63;;;21.10;;
63342;SDS011;49465;57.664;39.686;2023-02-02T07:05:54;34.95;;;20.90;;
63342;SDS011;49465;57.664;39.686;2023-02-02T07:08:21;37.33;;;21.55;;
63342;SDS011;49465;57.664;39.686;2023-02-02T07:10:47;37.45;;;21.00;;
63342;SDS011;49465;57.664;39.686;2023-02-02T07:13:14;35.80;;;20.60;;
63342;SDS011;49465;57.664;39.686;2023-02-02T07:15:40;36.72;;;20.83;;
63342;SDS011;49465;57.664;39.686;2023-02-02T07:18:06;36.35;;;21.15;;
63342;SDS011;49465;57.664;39.686;2023-02-02T07:20:33;38.22;;;21.55;;
63342;SDS011;49465;57.664;39.686;2023-02-02T07:23:01;38.97;;;22.30;;
63342;SDS011;49465;57.664;39.686;2023-02-02T07:25:28;37.22;;;21.33;;
63342;SDS011;49465;57.664;39.686;2023-02-02T07:27:54;34.88;;;20.98;;
63342;SDS011;49465;57.664;39.686;2023-02-02T07:30:23;38.40;;;22.10;;
63342;SDS011;49465;57.664;39.686;2023-02-02T07:32:53;38.35;;;22.40;;
63342;SDS011;49465;57.664;39.686;2023-02-02T07:35:21;39.83;;;21.73;;
63342;SDS011;49465;57.664;39.686;2023-02-02T07:37:50;38.13;;;20.67;;
63342;SDS011;49465;57.664;39.686;2023-02-02T07:40:17;38.80;;;21.85;;
63342;SDS011;49465;57.664;39.686;2023-02-02T07:42:45;37.00;;;21.95;;
63342;SDS011;49465;57.664;39.686;2023-02-02T07:45:16;39.20;;;21.58;;
63342;SDS011;49465;57.664;39.686;2023-02-02T07:47:42;40.55;;;22.23;;
63342;SDS011;49465;57.664;39.686;2023-02-02T07:50:09;37.92;;;20.45;;
63342;SDS011;49465;57.664;39.686;2023-02-02T07:52:35;37.20;;;21.23;;
63342;SDS011;49465;57.664;39.686;2023-02-02T07:55:02;37.67;;;21.70;;
63342;SDS011;49465;57.664;39.686;2023-02-02T07:57:28;37.10;;;21.52;;
63342;SDS011;49465;57.664;39.686;2023-02-02T07:59:54;42.03;;;23.63;;
63342;SDS011;49465;57.664;39.686;2023-02-02T08:02:21;38.85;;;21.77;;
63342;SDS011;49465;57.664;39.686;2023-02-02T08:04:47;39.08;;;22.80;;
63342;SDS011;49465;57.664;39.686;2023-02-02T08:07:13;42.30;;;23.20;;
63342;SDS011;49465;57.664;39.686;2023-02-02T08:09:45;39.00;;;22.73;;
63342;SDS011;49465;57.664;39.686;2023-02-02T08:12:12;39.75;;;23.10;;
63342;SDS011;49465;57.664;39.686;2023-02-02T08:14:39;39.40;;;23.00;;
63342;SDS011;49465;57.664;39.686;2023-02-02T08:17:06;39.95;;;23.55;;
63342;SDS011;49465;57.664;39.686;2023-02-02T08:19:32;40.08;;;22.85;;
63342;SDS011;49465;57.664;39.686;2023-02-02T08:21:59;41.53;;;23.58;;
63342;SDS011;49465;57.664;39.686;2023-02-02T08:24:28;40.20;;;23.90;;
63342;SDS011;49465;57.664;39.686;2023-02-02T08:26:55;41.13;;;22.67;;
63342;SDS011;49465;57.664;39.686;2023-02-02T08:29:21;37.72;;;22.40;;
63342;SDS011;49465;57.664;39.686;2023-02-02T08:31:47;38.47;;;22.80;;
63342;SDS011;49465;57.664;39.686;2023-02-02T08:34:14;42.25;;;24.13;;
63342;SDS011;49465;57.664;39.686;2023-02-02T08:36:40;40.58;;;23.38;;
63342;SDS011;49465;57.664;39.686;2023-02-02T08:39:08;42.38;;;24.25;;
63342;SDS011;49465;57.664;39.686;2023-02-02T08:41:36;40.35;;;23.75;;
63342;SDS011;49465;57.664;39.686;2023-02-02T08:44:07;41.63;;;23.55;;
63342;SDS011;49465;57.664;39.686;2023-02-02T08:46:34;39.67;;;22.67;;
63342;SDS011;49465;57.664;39.686;2023-02-02T08:49:00;40.53;;;23.42;;
63342;SDS011;49465;57.664;39.686;2023-02-02T08:51:26;41.35;;;23.27;;
63342;SDS011;49465;57.664;39.686;2023-02-02T08:53:56;39.50;;;23.27;;
63342;SDS011;49465;57.664;39.686;2023-02-02T08:56:23;40.72;;;23.58;;
63342;SDS011;49465;57.664;39.686;2023-02-02T08:58:50;39.67;;;22.90;;
63342;SDS011;49465;57.664;39.686;2023-02-02T09:01:28;39.42;;;22.80;;
63342;SDS011;49465;57.664;39.686;2023-02-02T09:03:57;40.42;;;23.85;;
63342;SDS011;49465;57.664;39.686;2023-02-02T09:06:39;39.47;;;22.90;;
63342;SDS011;49465;57.664;39.686;2023-02-02T09:09:09;41.85;;;23.15;;
63342;SDS011;49465;57.664;39.686;2023-02-02T09:11:40;39.22;;;22.67;;
63342;SDS011;49465;57.664;39.686;2023-02-02T09:14:09;40.42;;;23.25;;
63342;SDS011;49465;57.664;39.686;2023-02-02T09:16:36;37.65;;;22.63;;
63342;SDS011;49465;57.664;39.686;2023-02-02T09:19:03;39.03;;;22.27;;
63342;SDS011;49465;57.664;39.686;2023-02-02T09:21:30;36.90;;;21.92;;
63342;SDS011;49465;57.664;39.686;2023-02-02T09:24:05;39.28;;;22.85;;
63342;SDS011;49465;57.664;39.686;2023-02-02T09:26:33;40.42;;;22.80;;
63342;SDS011;49465;57.664;39.686;2023-02-02T09:29:01;38.67;;;23.15;;
63342;SDS011;49465;57.664;39.686;2023-02-02T09:31:33;37.58;;;22.40;;
63342;SDS011;49465;57.664;39.686;2023-02-02T09:34:01;36.70;;;22.05;;
63342;SDS011;49465;57.664;39.686;2023-02-02T09:36:29;36.03;;;21.23;;
63342;SDS011;49465;57.664;39.686;2023-02-02T09:38:56;40.40;;;21.83;;
63342;SDS011;49465;57.664;39.686;2023-02-02T09:44:37;36.95;;;21.95;;
63342;SDS011;49465;57.664;39.686;2023-02-02T09:52:55;33.78;;;20.85;;
63342;SDS011;49465;57.664;39.686;2023-02-02T09:55:48;35.65;;;19.80;;
63342;SDS011;49465;57.664;39.686;2023-02-02T09:58:20;32.50;;;19.48;;
63342;SDS011;49465;57.664;39.686;2023-02-02T10:01:15;32.25;;;19.33;;
63342;SDS011;49465;57.664;39.686;2023-02-02T10:09:24;31.00;;;18.15;;
63342;SDS011;49465;57.664;39.686;2023-02-02T10:12:23;31.00;;;18.77;;
63342;SDS011;49465;57.664;39.686;2023-02-02T10:18:03;27.05;;;16.95;;
63342;SDS011;49465;57.664;39.686;2023-02-02T10:21:11;26.45;;;16.95;;
63342;SDS011;49465;57.664;39.686;2023-02-02T10:23:42;25.58;;;16.50;;
63342;SDS011;49465;57.664;39.686;2023-02-02T10:26:28;26.35;;;16.67;;
63342;SDS011;49465;57.664;39.686;2023-02-02T10:49:27;24.70;;;15.45;;
63342;SDS011;49465;57.664;39.686;2023-02-02T10:52:10;22.67;;;14.32;;
63342;SDS011;49465;57.664;39.686;2023-02-02T11:03:41;24.60;;;15.40;;
63342;SDS011;49465;57.664;39.686;2023-02-02T11:06:07;21.17;;;13.90;;
63342;SDS011;49465;57.664;39.686;2023-02-02T11:08:56;24.15;;;14.95;;
63342;SDS011;49465;57.664;39.686;2023-02-02T11:11:31;22.58;;;14.55;;
63342;SDS011;49465;57.664;39.686;2023-02-02T11:16:40;24.23;;;14.70;;
63342;SDS011;49465;57.664;39.686;2023-02-02T11:21:46;25.67;;;16.10;;
63342;SDS011;49465;57.664;39.686;2023-02-02T11:27:12;23.98;;;15.73;;
63342;SDS011;49465;57.664;39.686;2023-02-02T11:29:45;22.35;;;14.75;;
63342;SDS011;49465;57.664;39.686;2023-02-02T11:37:50;25.98;;;15.45;;
63342;SDS011;49465;57.664;39.686;2023-02-02T11:43:06;29.35;;;17.48;;
63342;SDS011;49465;57.664;39.686;2023-02-02T11:45:44;24.45;;;15.15;;
63342;SDS011;49465;57.664;39.686;2023-02-02T11:48:20;25.08;;;15.70;;
63342;SDS011;49465;57.664;39.686;2023-02-02T11:50:52;26.92;;;16.70;;
63342;SDS011;49465;57.664;39.686;2023-02-02T11:55:57;26.10;;;16.30;;
63342;SDS011;49465;57.664;39.686;2023-02-02T11:58:27;29.30;;;16.80;;
63342;SDS011;49465;57.664;39.686;2023-02-02T12:01:09;23.92;;;15.35;;
63342;SDS011;49465;57.664;39.686;2023-02-02T12:03:59;25.48;;;15.95;;
63342;SDS011;49465;57.664;39.686;2023-02-02T12:08:58;28.98;;;17.40;;
63342;SDS011;49465;57.664;39.686;2023-02-02T12:22:22;23.92;;;15.25;;
63342;SDS011;49465;57.664;39.686;2023-02-02T12:24:55;25.83;;;16.70;;
63342;SDS011;49465;57.664;39.686;2023-02-02T12:30:22;23.98;;;15.23;;
63342;SDS011;49465;57.664;39.686;2023-02-02T12:38:54;24.20;;;14.85;;
63342;SDS011;49465;57.664;39.686;2023-02-02T12:41:59;21.85;;;14.40;;
63342;SDS011;49465;57.664;39.686;2023-02-02T12:44:49;23.42;;;14.32;;
63342;SDS011;49465;57.664;39.686;2023-02-02T12:48:09;22.50;;;14.57;;
63342;SDS011;49465;57.664;39.686;2023-02-02T12:50:53;22.10;;;14.43;;
63342;SDS011;49465;57.664;39.686;2023-02-02T12:56:39;23.70;;;14.77;;
63342;SDS011;49465;57.664;39.686;2023-02-02T13:05:38;22.20;;;14.68;;
63342;SDS011;49465;57.664;39.686;2023-02-02T13:10:52;22.52;;;15.02;;
63342;SDS011;49465;57.664;39.686;2023-02-02T13:13:32;22.70;;;14.68;;
63342;SDS011;49465;57.664;39.686;2023-02-02T13:16:07;22.98;;;14.63;;
63342;SDS011;49465;57.664;39.686;2023-02-02T13:18:44;23.17;;;14.85;;
63342;SDS011;49465;57.664;39.686;2023-02-02T13:21:31;23.20;;;14.73;;
63342;SDS011;49465;57.664;39.686;2023-02-02T13:24:04;21.40;;;14.57;;
63342;SDS011;49465;57.664;39.686;2023-02-02T13:26:40;22.25;;;14.85;;
63342;SDS011;49465;57.664;39.686;2023-02-02T13:31:37;24.15;;;15.70;;
63342;SDS011;49465;57.664;39.686;2023-02-02T13:34:34;26.17;;;16.05;;
63342;SDS011;49465;57.664;39.686;2023-02-02T13:37:19;24.77;;;15.85;;
63342;SDS011;49465;57.664;39.686;2023-02-02T13:40:00;24.50;;;15.82;;
63342;SDS011;49465;57.664;39.686;2023-02-02T13:42:48;25.33;;;15.02;;
63342;SDS011;49465;57.664;39.686;2023-02-02T13:45:32;23.60;;;15.25;;
63342;SDS011;49465;57.664;39.686;2023-02-02T13:48:08;26.02;;;16.75;;
63342;SDS011;49465;57.664;39.686;2023-02-02T13:50:46;28.48;;;17.42;;
63342;SDS011;49465;57.664;39.686;2023-02-02T14:02:17;27.40;;;17.42;;
63342;SDS011;49465;57.664;39.686;2023-02-02T14:04:59;25.10;;;16.73;;
63342;SDS011;49465;57.664;39.686;2023-02-02T14:07:44;24.80;;;16.63;;
63342;SDS011;49465;57.664;39.686;2023-02-02T14:13:12;26.63;;;16.60;;
63342;SDS011;49465;57.664;39.686;2023-02-02T14:16:03;25.83;;;16.20;;
63342;SDS011;49465;57.664;39.686;2023-02-02T14:18:50;25.38;;;15.98;;
63342;SDS011;49465;57.664;39.686;2023-02-02T14:27:04;25.17;;;15.98;;
63342;SDS011;49465;57.664;39.686;2023-02-02T14:49:05;22.75;;;15.13;;
63342;SDS011;49465;57.664;39.686;2023-02-02T14:51:54;23.92;;;15.48;;
63342;SDS011;49465;57.664;39.686;2023-02-02T14:54:31;22.02;;;14.68;;
63342;SDS011;49465;57.664;39.686;2023-02-02T14:59:52;23.58;;;15.02;;
63342;SDS011;49465;57.664;39.686;2023-02-02T15:02:29;22.00;;;14.88;;
63342;SDS011;49465;57.664;39.686;2023-02-02T15:13:20;23.10;;;14.97;;
63342;SDS011;49465;57.664;39.686;2023-02-02T15:16:02;20.73;;;14.75;;
63342;SDS011;49465;57.664;39.686;2023-02-02T15:18:40;22.58;;;15.60;;
63342;SDS011;49465;57.664;39.686;2023-02-02T15:21:14;24.42;;;16.08;;
63342;SDS011;49465;57.664;39.686;2023-02-02T15:23:46;23.23;;;15.48;;
63342;SDS011;49465;57.664;39.686;2023-02-02T15:28:53;23.80;;;15.48;;
63342;SDS011;49465;57.664;39.686;2023-02-02T15:36:54;21.90;;;15.05;;
63342;SDS011;49465;57.664;39.686;2023-02-02T15:39:31;22.55;;;15.15;;
63342;SDS011;49465;57.664;39.686;2023-02-02T15:42:14;22.48;;;15.18;;
63342;SDS011;49465;57.664;39.686;2023-02-02T15:45:05;21.90;;;14.65;;
63342;SDS011;49465;57.664;39.686;2023-02-02T15:47:51;19.55;;;14.20;;
63342;SDS011;49465;57.664;39.686;2023-02-02T15:50:21;20.05;;;13.85;;
63342;SDS011;49465;57.664;39.686;2023-02-02T15:52:48;21.42;;;14.30;;
63342;SDS011;49465;57.664;39.686;2023-02-02T15:55:30;21.23;;;14.20;;
63342;SDS011;49465;57.664;39.686;2023-02-02T15:58:19;20.95;;;14.50;;
63342;SDS011;49465;57.664;39.686;2023-02-02T16:01:02;20.98;;;14.48;;
63342;SDS011;49465;57.664;39.686;2023-02-02T16:06:26;20.98;;;13.68;;
63342;SDS011;49465;57.664;39.686;2023-02-02T16:08:54;20.33;;;13.35;;
63342;SDS011;49465;57.664;39.686;2023-02-02T16:11:21;20.38;;;13.68;;
63342;SDS011;49465;57.664;39.686;2023-02-02T16:16:32;19.02;;;12.80;;
63342;SDS011;49465;57.664;39.686;2023-02-02T16:19:21;18.55;;;13.07;;
63342;SDS011;49465;57.664;39.686;2023-02-02T16:21:52;19.90;;;13.40;;
63342;SDS011;49465;57.664;39.686;2023-02-02T16:24:27;19.38;;;13.13;;
63342;SDS011;49465;57.664;39.686;2023-02-02T16:26:57;20.27;;;13.52;;
63342;SDS011;49465;57.664;39.686;2023-02-02T16:29:31;18.42;;;12.82;;
63342;SDS011;49465;57.664;39.686;2023-02-02T16:32:01;20.15;;;13.18;;
63342;SDS011;49465;57.664;39.686;2023-02-02T16:37:14;18.95;;;12.90;;
63342;SDS011;49465;57.664;39.686;2023-02-02T16:39:46;21.20;;;13.60;;
63342;SDS011;49465;57.664;39.686;2023-02-02T16:48:45;18.15;;;12.88;;
63342;SDS011;49465;57.664;39.686;2023-02-02T16:53:31;18.45;;;12.63;;
63342;SDS011;49465;57.664;39.686;2023-02-02T16:56:01;19.58;;;12.65;;
63342;SDS011;49465;57.664;39.686;2023-02-02T16:58:38;19.45;;;13.15;;
63342;SDS011;49465;57.664;39.686;2023-02-02T17:01:11;18.40;;;13.02;;
63342;SDS011;49465;57.664;39.686;2023-02-02T17:03:48;21.88;;;13.63;;
63342;SDS011;49465;57.664;39.686;2023-02-02T17:06:31;20.83;;;13.70;;
63342;SDS011;49465;57.664;39.686;2023-02-02T17:14:56;18.75;;;12.88;;
63342;SDS011;49465;57.664;39.686;2023-02-02T17:17:31;20.75;;;12.82;;
63342;SDS011;49465;57.664;39.686;2023-02-02T17:20:00;20.23;;;13.32;;
63342;SDS011;49465;57.664;39.686;2023-02-02T17:22:32;19.42;;;12.75;;
63342;SDS011;49465;57.664;39.686;2023-02-02T17:25:13;19.48;;;12.85;;
63342;SDS011;49465;57.664;39.686;2023-02-02T17:28:10;22.52;;;14.00;;
63342;SDS011;49465;57.664;39.686;2023-02-02T17:30:47;19.73;;;13.15;;
63342;SDS011;49465;57.664;39.686;2023-02-02T17:33:36;20.73;;;13.25;;
63342;SDS011;49465;57.664;39.686;2023-02-02T17:36:03;21.33;;;13.82;;
63342;SDS011;49465;57.664;39.686;2023-02-02T17:38:30;21.13;;;12.95;;
63342;SDS011;49465;57.664;39.686;2023-02-02T17:40:58;20.92;;;13.85;;
63342;SDS011;49465;57.664;39.686;2023-02-02T17:43:26;21.08;;;13.60;;
63342;SDS011;49465;57.664;39.686;2023-02-02T17:45:54;20.83;;;13.77;;
63342;SDS011;49465;57.664;39.686;2023-02-02T17:48:23;22.15;;;14.43;;
63342;SDS011;49465;57.664;39.686;2023-02-02T17:50:49;21.85;;;14.40;;
63342;SDS011;49465;57.664;39.686;2023-02-02T17:53:19;21.38;;;14.00;;
63342;SDS011;49465;57.664;39.686;2023-02-02T17:55:48;23.45;;;14.63;;
63342;SDS011;49465;57.664;39.686;2023-02-02T17:58:19;20.77;;;13.77;;
63342;SDS011;49465;57.664;39.686;2023-02-02T18:00:51;20.27;;;13.05;;
63342;SDS011;49465;57.664;39.686;2023-02-02T18:05:53;20.90;;;13.57;;